Ball Ground, Georgia
Current Conditions -  °F | °C
As of 11:15 AM on Wednesday 26 Nov 2014 (Local Time) from KCNI Reporting Station
Clear Clear  
Wind Chill: 50°   Ceiling: Unl
Heat Index: 50°   Visibility: 10mi
Dew Point: 21°   Wind: 9mph
Humidity: 32%   Direction: 300°WNW
Pressure: 30.09"   Gusts: 16mph
Location:  34.34°N, 84.38°W
Report Text: KCNI 261615Z AUTO 30008G14KT 10SM CLR 10/M06 A3009 RMK AO2
Loading
Personal Weather Stations






























Interactive Weather Map New forecast layout! Learn more

10-Day Weather Forecast

Advertisements
Track Severe Weather on mobile